createdAt,value
2023-11-14T12:44:30.824Z,78.04
2023-11-14T12:49:33.528Z,76.94
2023-11-14T12:54:35.462Z,77.93
2023-11-14T12:59:37.187Z,77.30
2023-11-14T13:04:39.323Z,78.30
2023-11-14T13:09:41.356Z,77.61
2023-11-14T13:14:43.383Z,79.05
2023-11-14T13:19:45.963Z,79.48
2023-11-14T13:24:48.025Z,79.84
2023-11-14T13:29:49.694Z,80.39
2023-11-14T13:34:53.305Z,80.65
2023-11-14T13:40:07.471Z,81.10
2023-11-14T13:45:10.631Z,82.93
2023-11-14T13:50:14.612Z,83.07
2023-11-14T13:55:19.298Z,83.13
2023-11-14T14:00:23.770Z,83.91
2023-11-14T14:05:25.846Z,84.44
2023-11-14T14:10:28.265Z,84.81
2023-11-14T14:15:30.257Z,85.32
2023-11-14T14:20:32.434Z,85.22
2023-11-14T14:25:35.599Z,86.24
2023-11-14T14:30:37.359Z,86.64
2023-11-14T14:35:39.090Z,86.14
2023-11-14T14:40:41.430Z,86.08
2023-11-14T14:45:47.918Z,85.89
2023-11-14T14:50:51.943Z,85.90
2023-11-14T14:55:54.169Z,85.36
2023-11-14T15:00:56.022Z,85.59
2023-11-14T15:06:01.100Z,86.28
2023-11-14T15:11:05.263Z,86.76
2023-11-14T15:16:09.373Z,84.98
2023-11-14T15:21:12.131Z,85.26
2023-11-14T15:26:14.221Z,81.28
2023-11-14T15:31:16.034Z,79.01
2023-11-14T15:36:19.958Z,80.39
2023-11-14T15:41:22.383Z,82.80
2023-11-14T15:46:25.662Z,84.45
2023-11-14T15:51:27.921Z,87.15
2023-11-14T15:56:29.663Z,89.28
2023-11-14T16:01:31.488Z,92.29
2023-11-14T16:06:33.169Z,95.98
2023-11-14T16:11:34.868Z,98.68
2023-11-14T16:16:36.801Z,100.00
2023-11-14T16:21:38.985Z,100.00
2023-11-14T16:26:40.789Z,100.00
2023-11-14T16:31:44.284Z,100.00
2023-11-14T16:36:46.001Z,100.00
2023-11-14T16:41:47.885Z,100.00
2023-11-14T16:46:49.679Z,100.00
2023-11-14T16:51:54.304Z,100.00
2023-11-14T16:56:56.380Z,100.00
2023-11-14T17:01:58.919Z,100.00
2023-11-14T17:07:02.480Z,100.00
2023-11-14T17:12:04.651Z,100.00
2023-11-14T17:17:07.633Z,100.00
2023-11-14T17:22:10.395Z,100.00
2023-11-14T17:27:14.193Z,100.00
2023-11-14T17:32:16.231Z,100.00
2023-11-14T17:37:17.939Z,100.00
2023-11-14T17:42:19.895Z,100.00
2023-11-14T17:47:22.938Z,100.00
2023-11-14T17:52:26.417Z,100.00
2023-11-14T17:57:30.572Z,100.00
2023-11-14T18:02:35.626Z,100.00
2023-11-14T18:07:38.782Z,100.00
2023-11-14T18:12:41.208Z,100.00
2023-11-14T18:17:45.222Z,100.00
2023-11-14T18:22:48.196Z,100.00
2023-11-14T18:27:50.305Z,100.00
2023-11-14T18:32:52.065Z,100.00
2023-11-14T18:37:56.435Z,100.00
2023-11-14T18:42:58.110Z,100.00
2023-11-14T18:48:00.702Z,100.00
2023-11-14T18:53:02.463Z,100.00
2023-11-14T18:58:04.271Z,100.00
2023-11-14T19:03:08.309Z,100.00
2023-11-14T19:08:10.941Z,100.00
2023-11-14T19:13:12.747Z,100.00
2023-11-14T19:18:18.954Z,100.00
2023-11-14T19:23:41.813Z,100.00
2023-11-14T19:28:46.159Z,100.00
2023-11-14T19:33:49.952Z,100.00
2023-11-14T19:38:52.573Z,100.00
2023-11-14T19:43:55.358Z,100.00
2023-11-14T19:49:00.675Z,100.00
2023-11-14T19:54:05.119Z,100.00
2023-11-14T19:59:14.956Z,100.00
2023-11-14T20:04:19.064Z,100.00
2023-11-14T20:09:20.874Z,100.00
2023-11-14T20:14:23.128Z,100.00
2023-11-14T20:19:24.852Z,100.00
2023-11-14T20:24:26.501Z,100.00
2023-11-14T20:29:28.690Z,100.00
2023-11-14T20:34:30.405Z,100.00
2023-11-14T20:39:34.151Z,100.00
2023-11-14T20:44:37.337Z,100.00
2023-11-14T20:49:40.272Z,100.00
2023-11-14T20:54:42.537Z,100.00
2023-11-14T20:59:44.828Z,100.00
2023-11-14T21:04:46.619Z,100.00
2023-11-14T21:09:48.308Z,100.00
2023-11-14T21:14:50.911Z,100.00
2023-11-14T21:19:53.322Z,100.00
2023-11-14T21:24:55.621Z,100.00
2023-11-14T21:29:57.494Z,100.00
